sensor_id;sensor_type;location;lat;lon;timestamp;pressure;altitude;pressure_sealevel;temperature;humidity
7986;BME280;4038;42.612;23.066;2023-08-07T00:00:43;92587.06;;;19.93;68.85
7986;BME280;4038;42.612;23.066;2023-08-07T00:03:09;92593.78;;;19.65;69.42
7986;BME280;4038;42.612;23.066;2023-08-07T00:05:36;92592.22;;;19.39;70.52
7986;BME280;4038;42.612;23.066;2023-08-07T00:08:02;92591.94;;;19.60;70.43
7986;BME280;4038;42.612;23.066;2023-08-07T00:10:27;92589.25;;;20.19;68.75
7986;BME280;4038;42.612;23.066;2023-08-07T00:12:53;92585.88;;;19.78;68.50
7986;BME280;4038;42.612;23.066;2023-08-07T00:15:18;92595.53;;;20.02;68.12
7986;BME280;4038;42.612;23.066;2023-08-07T00:17:43;92593.81;;;19.57;69.67
7986;BME280;4038;42.612;23.066;2023-08-07T00:20:09;92593.13;;;19.49;70.42
7986;BME280;4038;42.612;23.066;2023-08-07T00:22:35;92567.63;;;18.95;72.15
7986;BME280;4038;42.612;23.066;2023-08-07T00:25:00;92575.56;;;19.06;72.21
7986;BME280;4038;42.612;23.066;2023-08-07T00:27:25;92585.75;;;19.69;70.48
7986;BME280;4038;42.612;23.066;2023-08-07T00:29:51;92581.72;;;19.62;70.43
7986;BME280;4038;42.612;23.066;2023-08-07T00:32:16;92589.75;;;20.25;68.20
7986;BME280;4038;42.612;23.066;2023-08-07T00:34:42;92583.84;;;20.21;68.13
7986;BME280;4038;42.612;23.066;2023-08-07T00:37:07;92583.94;;;19.64;70.17
7986;BME280;4038;42.612;23.066;2023-08-07T00:39:33;92578.03;;;20.09;68.48
7986;BME280;4038;42.612;23.066;2023-08-07T00:41:58;92582.19;;;20.01;68.61
7986;BME280;4038;42.612;23.066;2023-08-07T00:44:24;92586.47;;;20.19;68.12
7986;BME280;4038;42.612;23.066;2023-08-07T00:46:50;92588.66;;;20.62;66.29
7986;BME280;4038;42.612;23.066;2023-08-07T00:49:15;92598.06;;;20.08;67.88
7986;BME280;4038;42.612;23.066;2023-08-07T00:51:42;92605.25;;;19.94;68.02
7986;BME280;4038;42.612;23.066;2023-08-07T00:54:09;92610.13;;;19.85;69.01
7986;BME280;4038;42.612;23.066;2023-08-07T00:56:36;92607.56;;;20.05;68.43
7986;BME280;4038;42.612;23.066;2023-08-07T00:59:02;92600.19;;;19.50;69.81
7986;BME280;4038;42.612;23.066;2023-08-07T01:01:28;92613.94;;;19.00;72.32
7986;BME280;4038;42.612;23.066;2023-08-07T01:03:54;92615.59;;;19.03;72.23
7986;BME280;4038;42.612;23.066;2023-08-07T01:06:20;92621.16;;;18.96;72.73
7986;BME280;4038;42.612;23.066;2023-08-07T01:08:46;92626.41;;;19.24;72.02
7986;BME280;4038;42.612;23.066;2023-08-07T01:11:34;92628.25;;;19.29;72.08
7986;BME280;4038;42.612;23.066;2023-08-07T01:14:15;92624.25;;;19.55;71.42
7986;BME280;4038;42.612;23.066;2023-08-07T01:16:51;92625.16;;;19.82;70.70
7986;BME280;4038;42.612;23.066;2023-08-07T01:19:25;92618.31;;;20.25;68.11
7986;BME280;4038;42.612;23.066;2023-08-07T01:22:14;92627.00;;;19.87;68.85
7986;BME280;4038;42.612;23.066;2023-08-07T01:24:41;92632.19;;;19.19;71.10
7986;BME280;4038;42.612;23.066;2023-08-07T01:32:24;92635.78;;;17.95;76.99
7986;BME280;4038;42.612;23.066;2023-08-07T01:34:51;92625.81;;;17.92;76.69
7986;BME280;4038;42.612;23.066;2023-08-07T01:37:20;92632.97;;;18.33;75.88
7986;BME280;4038;42.612;23.066;2023-08-07T01:39:47;92630.31;;;18.73;73.40
7986;BME280;4038;42.612;23.066;2023-08-07T01:42:14;92636.50;;;18.57;74.25
7986;BME280;4038;42.612;23.066;2023-08-07T01:44:39;92631.44;;;18.78;73.48
7986;BME280;4038;42.612;23.066;2023-08-07T01:47:05;92631.38;;;19.73;70.49
7986;BME280;4038;42.612;23.066;2023-08-07T01:49:30;92631.69;;;19.77;69.18
7986;BME280;4038;42.612;23.066;2023-08-07T01:51:56;92633.84;;;19.62;69.98
7986;BME280;4038;42.612;23.066;2023-08-07T01:54:21;92630.38;;;18.51;74.14
7986;BME280;4038;42.612;23.066;2023-08-07T01:56:46;92631.50;;;18.25;74.93
7986;BME280;4038;42.612;23.066;2023-08-07T01:59:12;92629.69;;;18.12;75.73
7986;BME280;4038;42.612;23.066;2023-08-07T02:01:37;92640.75;;;18.43;74.52
7986;BME280;4038;42.612;23.066;2023-08-07T02:04:03;92633.75;;;17.81;76.85
7986;BME280;4038;42.612;23.066;2023-08-07T02:06:28;92640.59;;;17.87;77.00
7986;BME280;4038;42.612;23.066;2023-08-07T02:08:54;92646.34;;;18.05;76.24
7986;BME280;4038;42.612;23.066;2023-08-07T02:11:19;92640.13;;;19.30;73.74
7986;BME280;4038;42.612;23.066;2023-08-07T02:13:45;92647.97;;;19.16;71.52
7986;BME280;4038;42.612;23.066;2023-08-07T02:16:10;92649.00;;;19.68;70.22
7986;BME280;4038;42.612;23.066;2023-08-07T02:18:37;92659.81;;;20.14;67.55
7986;BME280;4038;42.612;23.066;2023-08-07T02:21:02;92651.56;;;19.74;68.34
7986;BME280;4038;42.612;23.066;2023-08-07T02:23:27;92653.81;;;20.00;66.87
7986;BME280;4038;42.612;23.066;2023-08-07T02:25:54;92656.06;;;20.19;66.23
7986;BME280;4038;42.612;23.066;2023-08-07T02:28:19;92665.03;;;19.85;67.64
7986;BME280;4038;42.612;23.066;2023-08-07T02:30:45;92656.69;;;21.28;63.63
7986;BME280;4038;42.612;23.066;2023-08-07T02:33:14;92653.59;;;20.48;65.70
7986;BME280;4038;42.612;23.066;2023-08-07T02:35:39;92657.53;;;20.20;66.73
7986;BME280;4038;42.612;23.066;2023-08-07T02:38:04;92658.88;;;19.62;67.89
7986;BME280;4038;42.612;23.066;2023-08-07T02:40:30;92652.13;;;19.32;68.55
7986;BME280;4038;42.612;23.066;2023-08-07T02:42:55;92665.66;;;19.36;68.87
7986;BME280;4038;42.612;23.066;2023-08-07T02:45:21;92659.88;;;19.49;68.14
7986;BME280;4038;42.612;23.066;2023-08-07T02:47:46;92650.44;;;19.44;68.82
7986;BME280;4038;42.612;23.066;2023-08-07T02:50:12;92660.22;;;19.85;67.12
7986;BME280;4038;42.612;23.066;2023-08-07T02:52:37;92666.88;;;19.10;69.15
7986;BME280;4038;42.612;23.066;2023-08-07T02:55:03;92675.69;;;19.71;66.93
7986;BME280;4038;42.612;23.066;2023-08-07T02:57:28;92678.50;;;18.46;71.39
7986;BME280;4038;42.612;23.066;2023-08-07T02:59:54;92672.94;;;18.61;71.01
7986;BME280;4038;42.612;23.066;2023-08-07T03:02:19;92661.22;;;18.85;70.25
7986;BME280;4038;42.612;23.066;2023-08-07T03:04:44;92667.06;;;19.12;69.42
7986;BME280;4038;42.612;23.066;2023-08-07T03:07:10;92671.97;;;18.73;70.93
7986;BME280;4038;42.612;23.066;2023-08-07T03:09:35;92668.59;;;19.38;68.16
7986;BME280;4038;42.612;23.066;2023-08-07T03:12:01;92669.78;;;19.27;69.18
7986;BME280;4038;42.612;23.066;2023-08-07T03:14:28;92663.31;;;18.47;70.97
7986;BME280;4038;42.612;23.066;2023-08-07T03:16:54;92670.00;;;18.36;72.12
7986;BME280;4038;42.612;23.066;2023-08-07T03:19:19;92669.00;;;18.94;70.07
7986;BME280;4038;42.612;23.066;2023-08-07T03:21:46;92675.91;;;18.40;71.67
7986;BME280;4038;42.612;23.066;2023-08-07T03:24:12;92677.69;;;18.91;70.97
7986;BME280;4038;42.612;23.066;2023-08-07T03:26:37;92676.97;;;18.83;70.56
7986;BME280;4038;42.612;23.066;2023-08-07T03:29:02;92682.19;;;18.63;72.13
7986;BME280;4038;42.612;23.066;2023-08-07T03:31:28;92681.16;;;19.06;70.21
7986;BME280;4038;42.612;23.066;2023-08-07T03:33:53;92678.41;;;19.46;67.93
7986;BME280;4038;42.612;23.066;2023-08-07T03:36:19;92686.03;;;18.91;69.55
7986;BME280;4038;42.612;23.066;2023-08-07T03:38:44;92695.09;;;19.39;67.97
7986;BME280;4038;42.612;23.066;2023-08-07T03:41:09;92708.84;;;18.59;71.20
7986;BME280;4038;42.612;23.066;2023-08-07T03:43:35;92709.25;;;19.26;68.80
7986;BME280;4038;42.612;23.066;2023-08-07T03:46:00;92712.56;;;18.69;70.72
7986;BME280;4038;42.612;23.066;2023-08-07T03:48:26;92712.19;;;18.27;72.54
7986;BME280;4038;42.612;23.066;2023-08-07T03:50:51;92721.09;;;18.56;72.10
7986;BME280;4038;42.612;23.066;2023-08-07T03:53:17;92730.16;;;18.64;70.98
7986;BME280;4038;42.612;23.066;2023-08-07T03:55:42;92726.63;;;18.71;70.97
7986;BME280;4038;42.612;23.066;2023-08-07T03:58:10;92728.47;;;19.39;68.93
7986;BME280;4038;42.612;23.066;2023-08-07T04:00:35;92723.84;;;19.41;67.50
7986;BME280;4038;42.612;23.066;2023-08-07T04:03:01;92720.03;;;19.22;68.83
7986;BME280;4038;42.612;23.066;2023-08-07T04:05:26;92718.25;;;17.95;72.89
7986;BME280;4038;42.612;23.066;2023-08-07T04:07:51;92731.78;;;17.99;73.62
7986;BME280;4038;42.612;23.066;2023-08-07T04:10:17;92722.34;;;18.85;70.14
7986;BME280;4038;42.612;23.066;2023-08-07T04:12:42;92732.22;;;19.34;68.79
7986;BME280;4038;42.612;23.066;2023-08-07T04:15:08;92737.91;;;18.12;72.55
7986;BME280;4038;42.612;23.066;2023-08-07T04:17:35;92747.28;;;17.94;74.62
7986;BME280;4038;42.612;23.066;2023-08-07T04:20:01;92734.97;;;18.71;72.14
7986;BME280;4038;42.612;23.066;2023-08-07T04:22:28;92731.44;;;18.86;70.82
7986;BME280;4038;42.612;23.066;2023-08-07T04:24:54;92744.75;;;18.87;71.47
7986;BME280;4038;42.612;23.066;2023-08-07T04:27:19;92730.28;;;18.89;70.76
7986;BME280;4038;42.612;23.066;2023-08-07T04:29:44;92729.47;;;19.19;70.16
7986;BME280;4038;42.612;23.066;2023-08-07T04:32:10;92730.25;;;19.11;70.72
7986;BME280;4038;42.612;23.066;2023-08-07T04:34:35;92734.69;;;19.15;70.64
7986;BME280;4038;42.612;23.066;2023-08-07T04:37:01;92742.56;;;18.70;72.31
7986;BME280;4038;42.612;23.066;2023-08-07T04:39:26;92737.53;;;18.92;70.67
7986;BME280;4038;42.612;23.066;2023-08-07T04:41:52;92737.22;;;19.35;69.27
7986;BME280;4038;42.612;23.066;2023-08-07T04:44:17;92736.63;;;18.51;71.95
7986;BME280;4038;42.612;23.066;2023-08-07T04:46:42;92738.84;;;18.22;73.13
7986;BME280;4038;42.612;23.066;2023-08-07T04:49:08;92759.94;;;18.33;73.40
7986;BME280;4038;42.612;23.066;2023-08-07T04:51:33;92754.00;;;18.44;72.77
7986;BME280;4038;42.612;23.066;2023-08-07T04:53:59;92761.78;;;18.30;73.22
7986;BME280;4038;42.612;23.066;2023-08-07T04:56:24;92759.22;;;18.78;72.14
7986;BME280;4038;42.612;23.066;2023-08-07T04:58:50;92760.63;;;19.02;71.35
7986;BME280;4038;42.612;23.066;2023-08-07T05:01:15;92757.28;;;19.11;70.77
7986;BME280;4038;42.612;23.066;2023-08-07T05:03:40;92760.97;;;19.21;70.64
7986;BME280;4038;42.612;23.066;2023-08-07T05:06:06;92760.44;;;19.70;68.82
7986;BME280;4038;42.612;23.066;2023-08-07T05:08:31;92756.22;;;20.02;67.95
7986;BME280;4038;42.612;23.066;2023-08-07T05:10:58;92756.03;;;20.82;65.13
7986;BME280;4038;42.612;23.066;2023-08-07T05:13:23;92751.69;;;20.88;64.55
7986;BME280;4038;42.612;23.066;2023-08-07T05:15:49;92749.44;;;21.29;63.09
7986;BME280;4038;42.612;23.066;2023-08-07T05:18:15;92742.88;;;21.17;62.70
7986;BME280;4038;42.612;23.066;2023-08-07T05:20:40;92751.50;;;21.46;61.86
7986;BME280;4038;42.612;23.066;2023-08-07T05:23:06;92747.34;;;20.95;63.44
7986;BME280;4038;42.612;23.066;2023-08-07T05:25:31;92753.25;;;20.99;63.38
7986;BME280;4038;42.612;23.066;2023-08-07T05:27:57;92759.38;;;21.22;62.85
7986;BME280;4038;42.612;23.066;2023-08-07T05:30:23;92760.97;;;20.41;65.77
7986;BME280;4038;42.612;23.066;2023-08-07T05:32:48;92749.41;;;21.80;61.62
7986;BME280;4038;42.612;23.066;2023-08-07T05:35:14;92754.66;;;21.76;61.29
7986;BME280;4038;42.612;23.066;2023-08-07T05:37:39;92756.56;;;21.74;60.73
7986;BME280;4038;42.612;23.066;2023-08-07T05:40:05;92756.50;;;21.30;62.04
7986;BME280;4038;42.612;23.066;2023-08-07T05:42:31;92748.53;;;21.61;61.61
7986;BME280;4038;42.612;23.066;2023-08-07T05:44:57;92747.72;;;21.95;59.45
7986;BME280;4038;42.612;23.066;2023-08-07T05:47:22;92753.53;;;22.70;57.09
7986;BME280;4038;42.612;23.066;2023-08-07T05:49:48;92756.72;;;21.41;61.88
7986;BME280;4038;42.612;23.066;2023-08-07T05:52:14;92753.94;;;21.41;61.67
7986;BME280;4038;42.612;23.066;2023-08-07T05:54:39;92762.72;;;22.16;59.11
7986;BME280;4038;42.612;23.066;2023-08-07T05:57:05;92752.47;;;22.29;58.37
7986;BME280;4038;42.612;23.066;2023-08-07T05:59:30;92757.84;;;22.44;57.16
7986;BME280;4038;42.612;23.066;2023-08-07T06:01:56;92752.56;;;23.59;54.46
7986;BME280;4038;42.612;23.066;2023-08-07T06:04:21;92746.78;;;24.96;49.93
7986;BME280;4038;42.612;23.066;2023-08-07T06:06:47;92746.53;;;25.13;49.48
7986;BME280;4038;42.612;23.066;2023-08-07T06:09:13;92747.38;;;26.80;45.61
7986;BME280;4038;42.612;23.066;2023-08-07T06:11:40;92733.69;;;26.75;43.62
7986;BME280;4038;42.612;23.066;2023-08-07T06:14:06;92744.56;;;24.64;48.10
7986;BME280;4038;42.612;23.066;2023-08-07T06:16:31;92752.28;;;25.37;46.12
7986;BME280;4038;42.612;23.066;2023-08-07T06:18:57;92744.16;;;25.62;45.58
7986;BME280;4038;42.612;23.066;2023-08-07T06:21:22;92746.19;;;26.72;42.35
7986;BME280;4038;42.612;23.066;2023-08-07T06:23:47;92753.53;;;27.84;39.83
7986;BME280;4038;42.612;23.066;2023-08-07T06:26:13;92754.13;;;28.45;39.30
7986;BME280;4038;42.612;23.066;2023-08-07T06:28:38;92745.47;;;29.21;37.85
7986;BME280;4038;42.612;23.066;2023-08-07T06:31:06;92737.19;;;30.68;34.54
7986;BME280;4038;42.612;23.066;2023-08-07T06:33:31;92766.22;;;31.47;31.34
7986;BME280;4038;42.612;23.066;2023-08-07T06:35:58;92750.69;;;29.26;31.91
7986;BME280;4038;42.612;23.066;2023-08-07T06:38:24;92758.56;;;30.12;31.02
7986;BME280;4038;42.612;23.066;2023-08-07T06:40:49;92755.97;;;32.22;28.37
7986;BME280;4038;42.612;23.066;2023-08-07T06:43:14;92763.25;;;33.18;27.36
7986;BME280;4038;42.612;23.066;2023-08-07T06:45:40;92761.09;;;32.26;28.32
7986;BME280;4038;42.612;23.066;2023-08-07T06:48:05;92749.78;;;32.10;29.19
7986;BME280;4038;42.612;23.066;2023-08-07T06:50:31;92757.44;;;30.03;31.94
7986;BME280;4038;42.612;23.066;2023-08-07T06:52:56;92743.22;;;30.76;31.49
7986;BME280;4038;42.612;23.066;2023-08-07T06:55:22;92744.41;;;30.12;32.71
7986;BME280;4038;42.612;23.066;2023-08-07T06:57:47;92748.81;;;30.15;31.69
7986;BME280;4038;42.612;23.066;2023-08-07T07:00:13;92758.59;;;30.27;31.90
7986;BME280;4038;42.612;23.066;2023-08-07T07:02:39;92764.00;;;32.28;29.20
7986;BME280;4038;42.612;23.066;2023-08-07T07:05:07;92762.50;;;31.91;29.28
7986;BME280;4038;42.612;23.066;2023-08-07T07:07:32;92761.63;;;30.02;30.46
7986;BME280;4038;42.612;23.066;2023-08-07T07:09:58;92762.66;;;30.38;29.56
7986;BME280;4038;42.612;23.066;2023-08-07T07:12:26;92754.53;;;33.51;25.70
7986;BME280;4038;42.612;23.066;2023-08-07T07:14:51;92746.16;;;31.74;27.83
7986;BME280;4038;42.612;23.066;2023-08-07T07:17:17;92751.84;;;32.61;26.29
7986;BME280;4038;42.612;23.066;2023-08-07T07:19:42;92746.94;;;29.22;31.29
7986;BME280;4038;42.612;23.066;2023-08-07T07:22:07;92742.56;;;30.77;29.53
7986;BME280;4038;42.612;23.066;2023-08-07T07:24:33;92748.91;;;32.58;27.25
7986;BME280;4038;42.612;23.066;2023-08-07T07:26:58;92752.09;;;31.80;27.92
7986;BME280;4038;42.612;23.066;2023-08-07T07:29:24;92749.69;;;30.78;29.43
7986;BME280;4038;42.612;23.066;2023-08-07T07:31:50;92749.03;;;30.64;30.37
7986;BME280;4038;42.612;23.066;2023-08-07T07:34:15;92744.94;;;31.46;28.90
7986;BME280;4038;42.612;23.066;2023-08-07T07:36:41;92752.38;;;32.04;27.86
7986;BME280;4038;42.612;23.066;2023-08-07T07:39:06;92750.56;;;31.12;29.21
7986;BME280;4038;42.612;23.066;2023-08-07T07:41:32;92757.75;;;31.80;29.04
7986;BME280;4038;42.612;23.066;2023-08-07T07:43:57;92756.28;;;31.79;28.37
7986;BME280;4038;42.612;23.066;2023-08-07T07:46:23;92762.81;;;33.06;26.87
7986;BME280;4038;42.612;23.066;2023-08-07T07:48:49;92756.91;;;31.28;28.17
7986;BME280;4038;42.612;23.066;2023-08-07T07:51:17;92753.44;;;32.83;26.92
7986;BME280;4038;42.612;23.066;2023-08-07T07:53:43;92755.44;;;31.92;27.39
7986;BME280;4038;42.612;23.066;2023-08-07T07:56:08;92755.34;;;31.90;27.66
7986;BME280;4038;42.612;23.066;2023-08-07T07:58:33;92758.41;;;32.47;26.92
7986;BME280;4038;42.612;23.066;2023-08-07T08:00:59;92748.84;;;32.39;26.82
7986;BME280;4038;42.612;23.066;2023-08-07T08:03:24;92743.38;;;31.42;28.19
7986;BME280;4038;42.612;23.066;2023-08-07T08:05:51;92747.03;;;30.67;28.70
7986;BME280;4038;42.612;23.066;2023-08-07T08:08:16;92752.34;;;32.92;25.91
7986;BME280;4038;42.612;23.066;2023-08-07T08:10:43;92735.16;;;33.26;25.61
7986;BME280;4038;42.612;23.066;2023-08-07T08:13:09;92743.06;;;32.72;26.96
7986;BME280;4038;42.612;23.066;2023-08-07T08:15:35;92743.34;;;31.74;27.58
7986;BME280;4038;42.612;23.066;2023-08-07T08:18:00;92737.13;;;30.07;29.72
7986;BME280;4038;42.612;23.066;2023-08-07T08:20:27;92723.53;;;31.42;28.56
7986;BME280;4038;42.612;23.066;2023-08-07T08:22:55;92728.75;;;28.19;33.03
7986;BME280;4038;42.612;23.066;2023-08-07T08:25:20;92731.94;;;27.88;33.76
7986;BME280;4038;42.612;23.066;2023-08-07T08:27:46;92723.63;;;29.48;31.26
7986;BME280;4038;42.612;23.066;2023-08-07T08:30:11;92725.50;;;28.50;32.60
7986;BME280;4038;42.612;23.066;2023-08-07T08:32:38;92716.06;;;30.10;30.76
7986;BME280;4038;42.612;23.066;2023-08-07T08:35:05;92730.56;;;32.79;27.85
7986;BME280;4038;42.612;23.066;2023-08-07T08:37:31;92722.22;;;31.95;27.77
7986;BME280;4038;42.612;23.066;2023-08-07T08:39:56;92724.72;;;31.87;27.85
7986;BME280;4038;42.612;23.066;2023-08-07T08:42:22;92715.16;;;34.94;24.69
7986;BME280;4038;42.612;23.066;2023-08-07T08:44:58;92707.16;;;35.12;24.40
7986;BME280;4038;42.612;23.066;2023-08-07T08:47:26;92724.06;;;33.74;25.99
7986;BME280;4038;42.612;23.066;2023-08-07T08:50:04;92723.09;;;34.52;24.70
7986;BME280;4038;42.612;23.066;2023-08-07T08:52:32;92718.59;;;35.64;23.92
7986;BME280;4038;42.612;23.066;2023-08-07T08:54:58;92717.75;;;35.85;24.43
7986;BME280;4038;42.612;23.066;2023-08-07T08:57:25;92713.00;;;33.03;27.35
7986;BME280;4038;42.612;23.066;2023-08-07T08:59:50;92720.84;;;32.84;27.75
7986;BME280;4038;42.612;23.066;2023-08-07T09:02:16;92717.00;;;32.95;27.02
7986;BME280;4038;42.612;23.066;2023-08-07T09:04:42;92713.19;;;33.26;26.43
7986;BME280;4038;42.612;23.066;2023-08-07T09:07:09;92701.72;;;34.73;25.27
7986;BME280;4038;42.612;23.066;2023-08-07T09:09:35;92706.75;;;32.51;26.86
7986;BME280;4038;42.612;23.066;2023-08-07T09:12:01;92684.88;;;33.50;26.10
7986;BME280;4038;42.612;23.066;2023-08-07T09:14:29;92675.97;;;34.23;25.72
7986;BME280;4038;42.612;23.066;2023-08-07T09:16:58;92682.34;;;35.69;23.69
7986;BME280;4038;42.612;23.066;2023-08-07T09:19:24;92684.66;;;34.51;26.21
7986;BME280;4038;42.612;23.066;2023-08-07T09:21:51;92690.69;;;31.69;28.50
7986;BME280;4038;42.612;23.066;2023-08-07T09:24:16;92698.75;;;30.94;29.94
7986;BME280;4038;42.612;23.066;2023-08-07T09:26:44;92695.81;;;33.18;26.88
7986;BME280;4038;42.612;23.066;2023-08-07T09:29:09;92711.25;;;33.53;26.81
7986;BME280;4038;42.612;23.066;2023-08-07T09:31:36;92697.56;;;33.47;26.87
7986;BME280;4038;42.612;23.066;2023-08-07T09:34:02;92702.06;;;33.74;26.64
7986;BME280;4038;42.612;23.066;2023-08-07T09:36:31;92688.25;;;34.75;25.76
7986;BME280;4038;42.612;23.066;2023-08-07T09:39:00;92699.84;;;35.31;24.70
7986;BME280;4038;42.612;23.066;2023-08-07T09:41:26;92684.84;;;34.57;25.83
7986;BME280;4038;42.612;23.066;2023-08-07T09:43:54;92688.47;;;34.14;26.74
7986;BME280;4038;42.612;23.066;2023-08-07T09:46:19;92696.84;;;33.88;26.28
7986;BME280;4038;42.612;23.066;2023-08-07T09:48:45;92694.34;;;33.98;26.80
7986;BME280;4038;42.612;23.066;2023-08-07T09:51:10;92701.31;;;32.57;27.36
7986;BME280;4038;42.612;23.066;2023-08-07T09:53:36;92693.78;;;35.43;25.20
7986;BME280;4038;42.612;23.066;2023-08-07T09:56:02;92698.59;;;33.36;27.45
7986;BME280;4038;42.612;23.066;2023-08-07T09:58:28;92691.81;;;35.23;24.45
7986;BME280;4038;42.612;23.066;2023-08-07T10:00:54;92697.81;;;35.34;23.99
7986;BME280;4038;42.612;23.066;2023-08-07T10:03:27;92690.78;;;36.78;23.62
7986;BME280;4038;42.612;23.066;2023-08-07T10:05:54;92698.09;;;35.97;23.90
7986;BME280;4038;42.612;23.066;2023-08-07T10:08:21;92694.78;;;34.56;26.12
7986;BME280;4038;42.612;23.066;2023-08-07T10:10:47;92690.81;;;35.65;24.54
7986;BME280;4038;42.612;23.066;2023-08-07T10:13:13;92695.75;;;35.36;25.16
7986;BME280;4038;42.612;23.066;2023-08-07T10:15:39;92700.97;;;34.96;24.86
7986;BME280;4038;42.612;23.066;2023-08-07T10:18:08;92686.19;;;36.35;23.32
7986;BME280;4038;42.612;23.066;2023-08-07T10:20:34;92683.16;;;35.99;23.29
7986;BME280;4038;42.612;23.066;2023-08-07T10:23:12;92690.16;;;36.22;23.74
7986;BME280;4038;42.612;23.066;2023-08-07T10:25:43;92690.97;;;32.46;27.24
7986;BME280;4038;42.612;23.066;2023-08-07T10:28:13;92680.22;;;32.62;28.55
7986;BME280;4038;42.612;23.066;2023-08-07T10:30:41;92682.66;;;32.52;28.29
7986;BME280;4038;42.612;23.066;2023-08-07T10:33:09;92680.47;;;33.67;26.41
7986;BME280;4038;42.612;23.066;2023-08-07T10:35:35;92673.00;;;33.36;27.43
7986;BME280;4038;42.612;23.066;2023-08-07T10:38:10;92678.78;;;33.38;26.61
7986;BME280;4038;42.612;23.066;2023-08-07T10:43:25;92666.78;;;30.44;31.19
7986;BME280;4038;42.612;23.066;2023-08-07T10:45:53;92670.88;;;31.20;29.95
7986;BME280;4038;42.612;23.066;2023-08-07T10:48:19;92669.13;;;31.28;30.13
7986;BME280;4038;42.612;23.066;2023-08-07T10:51:02;92669.34;;;32.94;28.50
7986;BME280;4038;42.612;23.066;2023-08-07T10:53:40;92652.31;;;31.32;30.52
7986;BME280;4038;42.612;23.066;2023-08-07T10:56:08;92666.81;;;32.82;28.92
7986;BME280;4038;42.612;23.066;2023-08-07T11:04:05;92646.44;;;34.13;26.32
7986;BME280;4038;42.612;23.066;2023-08-07T11:06:32;92639.13;;;35.24;25.11
7986;BME280;4038;42.612;23.066;2023-08-07T11:08:59;92642.31;;;34.39;26.45
7986;BME280;4038;42.612;23.066;2023-08-07T11:11:26;92637.63;;;34.72;26.09
7986;BME280;4038;42.612;23.066;2023-08-07T11:13:52;64273.56;;;-143.13;100.00
7986;BME280;4038;42.612;23.066;2023-08-07T11:16:18;64273.56;;;-143.13;100.00
7986;BME280;4038;42.612;23.066;2023-08-07T11:18:47;64273.56;;;-143.13;100.00
7986;BME280;4038;42.612;23.066;2023-08-07T11:21:13;64273.56;;;-143.13;100.00
7986;BME280;4038;42.612;23.066;2023-08-07T11:23:40;64273.56;;;-143.13;100.00
7986;BME280;4038;42.612;23.066;2023-08-07T11:26:07;64273.56;;;-143.13;100.00
7986;BME280;4038;42.612;23.066;2023-08-07T11:28:33;64273.56;;;-143.13;100.00
7986;BME280;4038;42.612;23.066;2023-08-07T11:30:59;64273.56;;;-143.13;100.00
7986;BME280;4038;42.612;23.066;2023-08-07T11:33:29;64273.56;;;-143.13;100.00
7986;BME280;4038;42.612;23.066;2023-08-07T11:35:54;64273.56;;;-143.13;100.00
7986;BME280;4038;42.612;23.066;2023-08-07T11:38:34;64273.56;;;-143.13;100.00
7986;BME280;4038;42.612;23.066;2023-08-07T11:41:01;64273.56;;;-143.13;100.00
7986;BME280;4038;42.612;23.066;2023-08-07T11:43:28;64273.56;;;-143.13;100.00
7986;BME280;4038;42.612;23.066;2023-08-07T11:45:57;64273.56;;;-143.13;100.00
7986;BME280;4038;42.612;23.066;2023-08-07T11:48:29;64273.56;;;-143.13;100.00
7986;BME280;4038;42.612;23.066;2023-08-07T11:50:56;64273.56;;;-143.13;100.00
7986;BME280;4038;42.612;23.066;2023-08-07T11:53:23;64273.56;;;-143.13;100.00
7986;BME280;4038;42.612;23.066;2023-08-07T11:58:19;64273.56;;;-143.13;100.00
7986;BME280;4038;42.612;23.066;2023-08-07T12:00:46;64273.56;;;-143.13;100.00
7986;BME280;4038;42.612;23.066;2023-08-07T12:03:25;64273.56;;;-143.13;100.00
7986;BME280;4038;42.612;23.066;2023-08-07T12:05:52;64273.56;;;-143.13;100.00
7986;BME280;4038;42.612;23.066;2023-08-07T12:08:17;64273.56;;;-143.13;100.00
7986;BME280;4038;42.612;23.066;2023-08-07T12:10:43;64273.56;;;-143.13;100.00
7986;BME280;4038;42.612;23.066;2023-08-07T12:13:09;64273.56;;;-143.13;100.00
7986;BME280;4038;42.612;23.066;2023-08-07T12:15:37;64273.56;;;-143.13;100.00
7986;BME280;4038;42.612;23.066;2023-08-07T12:18:03;64273.56;;;-143.13;100.00
7986;BME280;4038;42.612;23.066;2023-08-07T12:20:28;64273.56;;;-143.13;100.00
7986;BME280;4038;42.612;23.066;2023-08-07T12:22:54;64273.56;;;-143.13;100.00
7986;BME280;4038;42.612;23.066;2023-08-07T12:25:20;64273.56;;;-143.13;100.00
7986;BME280;4038;42.612;23.066;2023-08-07T12:27:45;64273.56;;;-143.13;100.00
7986;BME280;4038;42.612;23.066;2023-08-07T12:30:13;64273.56;;;-143.13;100.00
7986;BME280;4038;42.612;23.066;2023-08-07T12:32:38;64273.56;;;-143.13;100.00
7986;BME280;4038;42.612;23.066;2023-08-07T12:35:04;64273.56;;;-143.13;100.00
7986;BME280;4038;42.612;23.066;2023-08-07T12:37:34;64273.56;;;-143.13;100.00
7986;BME280;4038;42.612;23.066;2023-08-07T12:39:59;64273.56;;;-143.13;100.00
7986;BME280;4038;42.612;23.066;2023-08-07T12:42:25;64273.56;;;-143.13;100.00
7986;BME280;4038;42.612;23.066;2023-08-07T12:44:50;64273.56;;;-143.13;100.00
7986;BME280;4038;42.612;23.066;2023-08-07T12:47:15;64273.56;;;-143.13;100.00
7986;BME280;4038;42.612;23.066;2023-08-07T12:49:41;64273.56;;;-143.13;100.00
7986;BME280;4038;42.612;23.066;2023-08-07T12:52:06;64273.56;;;-143.13;100.00
7986;BME280;4038;42.612;23.066;2023-08-07T12:54:32;64273.56;;;-143.13;100.00
7986;BME280;4038;42.612;23.066;2023-08-07T12:56:58;64273.56;;;-143.13;100.00
7986;BME280;4038;42.612;23.066;2023-08-07T12:59:23;64273.56;;;-143.13;100.00
7986;BME280;4038;42.612;23.066;2023-08-07T13:01:48;64273.56;;;-143.13;100.00
7986;BME280;4038;42.612;23.066;2023-08-07T13:04:14;64273.56;;;-143.13;100.00
7986;BME280;4038;42.612;23.066;2023-08-07T13:06:40;64273.56;;;-143.13;100.00
7986;BME280;4038;42.612;23.066;2023-08-07T13:09:06;64273.56;;;-143.13;100.00
7986;BME280;4038;42.612;23.066;2023-08-07T13:11:32;64273.56;;;-143.13;100.00
7986;BME280;4038;42.612;23.066;2023-08-07T13:13:57;64273.56;;;-143.13;100.00
7986;BME280;4038;42.612;23.066;2023-08-07T13:16:23;64273.56;;;-143.13;100.00